Time;durP1;ratioP1;P1;durP2;ratioP2;P2;SDS_P1;SDS_P2;PMS_P1;PMS_P2;Temp;Humidity;BMP_temperature;BMP_pressure;BME280_temperature;BME280_humidity;BME280_pressure;Samples;Min_cycle;Max_cycle;Signal;HPM_P1;HPM_P2
2022/10/28 00:00:04;;;;;;;17.30;6.90;;;;;;;;;;5074950;28;20027;-72
2022/10/28 00:02:32;;;;;;;21.92;7.65;;;;;;;;;;5074291;28;20016;-72
2022/10/28 00:04:58;;;;;;;19.65;7.97;;;;;;;;;;5073907;28;20029;-72
2022/10/28 00:07:24;;;;;;;20.67;8.30;;;;;;;;;;5075506;28;20033;-72
2022/10/28 00:09:51;;;;;;;15.13;7.45;;;;;;;;;;5074962;28;20045;-72
2022/10/28 00:12:17;;;;;;;20.77;7.80;;;;;;;;;;5075250;28;20021;-72
2022/10/28 00:14:43;;;;;;;17.70;7.03;;;;;;;;;;5074505;28;20052;-72
2022/10/28 00:17:09;;;;;;;14.68;7.03;;;;;;;;;;5075207;28;20036;-71
2022/10/28 00:19:36;;;;;;;18.67;7.05;;;;;;;;;;5074662;28;20029;-72
2022/10/28 00:22:02;;;;;;;23.30;7.80;;;;;;;;;;5074998;28;20411;-72
2022/10/28 00:24:28;;;;;;;18.20;7.43;;;;;;;;;;5075062;28;20024;-72
2022/10/28 00:26:55;;;;;;;16.80;6.78;;;;;;;;;;5073675;28;20479;-72
2022/10/28 00:29:21;;;;;;;20.15;7.13;;;;;;;;;;5074352;28;20512;-72
2022/10/28 00:31:48;;;;;;;17.50;7.45;;;;;;;;;;5074957;28;20355;-72
2022/10/28 00:34:15;;;;;;;22.77;8.05;;;;;;;;;;5074702;28;20032;-72
2022/10/28 00:36:43;;;;;;;20.58;8.00;;;;;;;;;;5074642;28;20117;-72
2022/10/28 00:39:12;;;;;;;22.48;8.32;;;;;;;;;;5074391;28;20027;-72
2022/10/28 00:41:39;;;;;;;15.85;7.88;;;;;;;;;;5074556;28;20021;-72
2022/10/28 00:44:24;;;;;;;16.55;7.28;;;;;;;;;;5074324;28;20020;-72
2022/10/28 00:46:52;;;;;;;21.25;7.45;;;;;;;;;;5074357;28;20024;-72
2022/10/28 00:49:21;;;;;;;16.15;7.80;;;;;;;;;;5074340;28;20435;-72
2022/10/28 00:51:48;;;;;;;18.73;8.23;;;;;;;;;;5074662;28;20035;-72
2022/10/28 00:54:16;;;;;;;18.58;8.50;;;;;;;;;;5074522;28;20032;-72
2022/10/28 00:56:44;;;;;;;18.73;7.53;;;;;;;;;;5074626;28;20066;-72
2022/10/28 00:59:22;;;;;;;22.60;8.32;;;;;;;;;;5074465;28;20066;-72
2022/10/28 01:01:48;;;;;;;25.40;8.07;;;;;;;;;;5074360;28;20020;-72
2022/10/28 01:04:15;;;;;;;15.40;8.10;;;;;;;;;;5073978;28;20040;-72
2022/10/28 01:06:42;;;;;;;21.20;8.13;;;;;;;;;;5074018;28;20024;-72
2022/10/28 01:09:08;;;;;;;18.92;8.45;;;;;;;;;;5073865;28;20493;-72
2022/10/28 01:11:53;;;;;;;20.35;9.35;;;;;;;;;;5073883;28;20040;-72
2022/10/28 01:14:31;;;;;;;15.70;8.43;;;;;;;;;;5073873;28;20040;-72
2022/10/28 01:17:03;;;;;;;16.85;8.77;;;;;;;;;;5073784;28;20047;-72
2022/10/28 01:19:30;;;;;;;19.90;8.43;;;;;;;;;;5073800;28;20023;-72
2022/10/28 01:21:59;;;;;;;19.40;8.68;;;;;;;;;;5073741;28;20446;-72
2022/10/28 01:24:48;;;;;;;20.00;8.27;;;;;;;;;;5072776;28;20101;-72
2022/10/28 01:27:41;;;;;;;16.58;8.70;;;;;;;;;;5031304;28;20036;-74
2022/10/28 01:30:07;;;;;;;21.35;8.27;;;;;;;;;;4972418;28;20043;-74
2022/10/28 01:32:43;;;;;;;16.05;7.65;;;;;;;;;;4972793;28;20039;-74
2022/10/28 01:35:09;;;;;;;14.48;7.03;;;;;;;;;;4972780;28;20030;-74
2022/10/28 01:37:39;;;;;;;19.17;7.75;;;;;;;;;;4972670;28;20038;-74
2022/10/28 01:40:14;;;;;;;20.17;7.30;;;;;;;;;;4972584;28;20035;-71
2022/10/28 01:42:45;;;;;;;16.95;7.90;;;;;;;;;;4972674;28;20034;-73
2022/10/28 01:45:11;;;;;;;16.27;7.40;;;;;;;;;;4985870;28;20083;-72
2022/10/28 01:47:42;;;;;;;22.23;7.68;;;;;;;;;;4991837;28;20547;-72
2022/10/28 01:50:12;;;;;;;21.10;7.38;;;;;;;;;;4991738;28;20085;-71
2022/10/28 01:52:39;;;;;;;17.73;7.45;;;;;;;;;;4991835;28;20126;-72
2022/10/28 01:55:09;;;;;;;23.02;7.88;;;;;;;;;;4991348;28;20030;-74
2022/10/28 01:57:37;;;;;;;21.30;7.63;;;;;;;;;;4975565;28;20040;-74
2022/10/28 02:00:04;;;;;;;11.15;6.85;;;;;;;;;;4991739;28;20455;-74
2022/10/28 02:02:33;;;;;;;15.68;7.00;;;;;;;;;;4991957;28;20022;-74
2022/10/28 02:05:19;;;;;;;15.27;6.75;;;;;;;;;;5007704;28;20050;-74
2022/10/28 02:07:46;;;;;;;15.00;7.15;;;;;;;;;;5025369;28;20046;-72
2022/10/28 02:10:16;;;;;;;14.32;7.13;;;;;;;;;;5030366;28;20049;-72
2022/10/28 02:12:43;;;;;;;18.25;7.72;;;;;;;;;;5030893;28;20498;-72
2022/10/28 02:15:32;;;;;;;17.60;7.40;;;;;;;;;;5030518;28;20538;-72
2022/10/28 02:18:06;;;;;;;16.17;7.20;;;;;;;;;;5030771;28;20400;-73
2022/10/28 02:20:43;;;;;;;16.02;7.63;;;;;;;;;;5050562;28;20025;-74
2022/10/28 02:23:09;;;;;;;15.68;6.88;;;;;;;;;;5050448;28;20036;-74
2022/10/28 02:25:56;;;;;;;15.25;6.90;;;;;;;;;;5050294;28;20029;-74
2022/10/28 02:28:48;;;;;;;20.48;7.22;;;;;;;;;;5050079;28;20040;-73
2022/10/28 02:31:26;;;;;;;16.17;8.10;;;;;;;;;;5049065;28;20045;-74
2022/10/28 02:33:55;;;;;;;19.30;7.47;;;;;;;;;;5050516;28;20139;-72
2022/10/28 02:36:23;;;;;;;12.55;6.65;;;;;;;;;;5050202;28;20093;-72
2022/10/28 02:38:50;;;;;;;15.88;6.63;;;;;;;;;;5033489;28;20195;-71
2022/10/28 02:41:39;;;;;;;26.65;7.32;;;;;;;;;;5050602;28;20032;-72
2022/10/28 02:44:08;;;;;;;11.05;7.00;;;;;;;;;;5044921;28;20474;-73
2022/10/28 02:46:34;;;;;;;20.42;7.10;;;;;;;;;;5052780;28;20025;-74
2022/10/28 02:49:03;;;;;;;15.32;7.18;;;;;;;;;;5052249;28;20033;-73
2022/10/28 02:51:31;;;;;;;13.75;7.07;;;;;;;;;;5052392;28;20031;-73
2022/10/28 02:54:12;;;;;;;11.13;6.50;;;;;;;;;;5052038;28;20040;-74
2022/10/28 02:56:41;;;;;;;17.55;7.28;;;;;;;;;;5052382;28;20511;-71
2022/10/28 02:59:10;;;;;;;19.85;7.07;;;;;;;;;;5052192;28;20508;-74
2022/10/28 03:01:36;;;;;;;18.42;6.85;;;;;;;;;;5052363;28;20028;-73
2022/10/28 03:04:03;;;;;;;17.52;7.57;;;;;;;;;;5052540;28;20047;-73
2022/10/28 03:06:30;;;;;;;12.90;7.38;;;;;;;;;;5052191;28;20519;-74
2022/10/28 03:08:56;;;;;;;11.98;6.60;;;;;;;;;;5052031;28;20037;-72
2022/10/28 03:11:23;;;;;;;14.10;7.07;;;;;;;;;;5052158;28;20510;-74
2022/10/28 03:13:49;;;;;;;20.13;7.13;;;;;;;;;;5052153;28;20041;-74
2022/10/28 03:16:15;;;;;;;14.32;7.65;;;;;;;;;;5052235;28;20021;-74
2022/10/28 03:18:42;;;;;;;17.70;7.57;;;;;;;;;;5058014;28;20028;-74
2022/10/28 03:21:08;;;;;;;17.02;7.85;;;;;;;;;;5072182;28;20392;-74
2022/10/28 03:23:34;;;;;;;16.02;7.70;;;;;;;;;;5071764;28;20028;-74
2022/10/28 03:26:01;;;;;;;21.58;7.82;;;;;;;;;;5072284;28;20016;-74
2022/10/28 03:28:27;;;;;;;15.27;7.15;;;;;;;;;;5072001;28;20032;-74
2022/10/28 03:30:53;;;;;;;19.63;7.22;;;;;;;;;;5072092;28;20028;-72
2022/10/28 03:33:20;;;;;;;18.98;7.82;;;;;;;;;;5071952;28;20020;-72
2022/10/28 03:35:46;;;;;;;19.15;7.40;;;;;;;;;;5072085;28;20029;-72
2022/10/28 03:38:12;;;;;;;14.98;6.78;;;;;;;;;;5071546;28;20013;-72
2022/10/28 03:40:39;;;;;;;18.27;7.35;;;;;;;;;;5072006;28;20035;-72
2022/10/28 03:43:05;;;;;;;15.57;7.05;;;;;;;;;;5071850;28;20485;-72
2022/10/28 03:45:31;;;;;;;24.77;8.40;;;;;;;;;;5071743;28;20069;-72
2022/10/28 03:47:58;;;;;;;16.08;7.35;;;;;;;;;;5070820;28;20030;-72
2022/10/28 03:50:24;;;;;;;19.15;6.75;;;;;;;;;;5072007;28;20070;-72
2022/10/28 03:52:50;;;;;;;13.30;6.57;;;;;;;;;;5071778;28;20027;-72
2022/10/28 03:55:17;;;;;;;19.20;6.90;;;;;;;;;;5075217;28;20028;-71
2022/10/28 03:57:43;;;;;;;15.55;6.60;;;;;;;;;;5075321;28;20021;-72
2022/10/28 04:00:10;;;;;;;17.98;6.95;;;;;;;;;;5074219;28;20031;-73
2022/10/28 04:02:36;;;;;;;15.02;6.80;;;;;;;;;;5075236;28;20032;-73
2022/10/28 04:05:02;;;;;;;19.50;6.93;;;;;;;;;;5075302;28;20085;-74
2022/10/28 04:07:29;;;;;;;14.75;7.05;;;;;;;;;;5073671;28;20028;-74
2022/10/28 04:09:55;;;;;;;14.32;7.50;;;;;;;;;;5075426;28;20033;-72
2022/10/28 04:12:21;;;;;;;16.73;6.75;;;;;;;;;;5074968;28;20024;-72
2022/10/28 04:14:47;;;;;;;12.63;6.63;;;;;;;;;;5074937;28;20054;-72
2022/10/28 04:17:14;;;;;;;17.75;6.72;;;;;;;;;;5075321;28;20021;-72
2022/10/28 04:19:40;;;;;;;13.45;7.30;;;;;;;;;;5074701;28;20491;-72
2022/10/28 04:22:08;;;;;;;13.57;6.18;;;;;;;;;;5074797;28;20473;-72
2022/10/28 04:24:34;;;;;;;15.10;7.30;;;;;;;;;;5075442;28;20035;-72
2022/10/28 04:27:01;;;;;;;16.30;6.78;;;;;;;;;;5074747;28;20394;-72
2022/10/28 04:29:27;;;;;;;15.48;6.75;;;;;;;;;;5074992;28;20032;-72
2022/10/28 04:31:53;;;;;;;14.55;6.45;;;;;;;;;;5074876;28;20473;-72
2022/10/28 04:34:19;;;;;;;14.00;5.75;;;;;;;;;;5074803;28;20033;-73
2022/10/28 04:36:46;;;;;;;15.57;6.25;;;;;;;;;;5074669;28;20081;-74
2022/10/28 04:39:12;;;;;;;18.20;6.97;;;;;;;;;;5074695;28;20021;-74
2022/10/28 04:41:38;;;;;;;13.77;6.03;;;;;;;;;;5075257;28;20036;-72
2022/10/28 04:44:05;;;;;;;16.77;6.57;;;;;;;;;;5074485;28;20027;-72
2022/10/28 04:46:31;;;;;;;13.60;5.72;;;;;;;;;;5074540;28;20218;-72
2022/10/28 04:48:57;;;;;;;13.43;5.88;;;;;;;;;;5074188;28;20047;-72
2022/10/28 04:51:24;;;;;;;16.67;5.82;;;;;;;;;;5073260;28;20020;-72
2022/10/28 04:53:50;;;;;;;13.52;5.97;;;;;;;;;;5074414;28;20028;-72
2022/10/28 04:56:16;;;;;;;15.02;5.78;;;;;;;;;;5074194;28;20389;-72
2022/10/28 04:58:42;;;;;;;10.27;5.75;;;;;;;;;;5074557;28;20025;-72
2022/10/28 05:01:09;;;;;;;9.55;5.25;;;;;;;;;;5072851;28;20051;-71
2022/10/28 05:03:36;;;;;;;19.83;6.82;;;;;;;;;;5074168;28;20020;-74
2022/10/28 05:06:02;;;;;;;12.38;6.28;;;;;;;;;;5073612;28;20039;-74
2022/10/28 05:08:29;;;;;;;10.85;5.65;;;;;;;;;;5072754;28;20489;-74
2022/10/28 05:10:55;;;;;;;19.23;6.80;;;;;;;;;;5074032;28;20489;-73
2022/10/28 05:13:21;;;;;;;12.52;6.28;;;;;;;;;;5073801;28;20045;-73
2022/10/28 05:15:48;;;;;;;14.48;6.28;;;;;;;;;;5072455;28;20047;-74
2022/10/28 05:18:14;;;;;;;14.75;5.38;;;;;;;;;;5073472;28;20020;-74
2022/10/28 05:20:41;;;;;;;18.25;6.95;;;;;;;;;;5073861;28;20021;-74
2022/10/28 05:23:07;;;;;;;18.20;5.88;;;;;;;;;;5073667;28;20016;-73
2022/10/28 05:25:33;;;;;;;18.00;6.43;;;;;;;;;;5074160;28;20024;-74
2022/10/28 05:28:00;;;;;;;16.15;6.57;;;;;;;;;;5073633;28;20499;-74
2022/10/28 05:30:27;;;;;;;15.48;6.07;;;;;;;;;;5073527;28;20093;-72
2022/10/28 05:33:03;;;;;;;17.40;6.75;;;;;;;;;;5073293;28;20024;-72
2022/10/28 05:35:29;;;;;;;16.73;6.57;;;;;;;;;;5073460;28;20482;-74
2022/10/28 05:37:56;;;;;;;13.80;5.93;;;;;;;;;;5073596;28;20026;-72
2022/10/28 05:40:23;;;;;;;15.10;6.80;;;;;;;;;;5073286;28;20074;-71
2022/10/28 05:42:49;;;;;;;19.85;6.43;;;;;;;;;;5073374;28;20021;-71
2022/10/28 05:45:15;;;;;;;18.38;6.65;;;;;;;;;;5073206;28;20031;-71
2022/10/28 05:47:43;;;;;;;17.25;6.50;;;;;;;;;;5073076;28;20028;-72
2022/10/28 05:50:09;;;;;;;14.98;6.55;;;;;;;;;;5073115;28;20047;-71
2022/10/28 05:52:36;;;;;;;17.30;7.00;;;;;;;;;;5071990;28;20363;-71
2022/10/28 05:55:02;;;;;;;17.38;6.50;;;;;;;;;;5073181;28;20436;-72
2022/10/28 05:57:28;;;;;;;17.85;6.38;;;;;;;;;;5073377;28;20016;-71
2022/10/28 05:59:55;;;;;;;16.88;6.82;;;;;;;;;;5071818;28;20032;-72
2022/10/28 06:02:21;;;;;;;18.23;7.13;;;;;;;;;;5072664;28;20482;-72
2022/10/28 06:04:47;;;;;;;20.23;7.18;;;;;;;;;;5073147;28;20089;-72
2022/10/28 06:07:14;;;;;;;10.55;6.63;;;;;;;;;;5072956;28;20031;-72
2022/10/28 06:09:40;;;;;;;14.32;6.93;;;;;;;;;;5072896;28;20054;-71
2022/10/28 06:12:07;;;;;;;10.20;6.22;;;;;;;;;;5072733;28;20024;-71
2022/10/28 06:14:33;;;;;;;14.32;6.32;;;;;;;;;;5072840;28;20040;-72
2022/10/28 06:17:00;;;;;;;13.07;6.65;;;;;;;;;;5072482;28;20020;-72
2022/10/28 06:19:26;;;;;;;17.13;7.35;;;;;;;;;;5071294;28;20033;-72
2022/10/28 06:21:52;;;;;;;13.05;6.22;;;;;;;;;;5072705;28;20025;-74
2022/10/28 06:24:19;;;;;;;21.00;7.10;;;;;;;;;;5072458;28;20027;-74
2022/10/28 06:26:45;;;;;;;20.88;6.68;;;;;;;;;;5072601;28;20406;-74
2022/10/28 06:29:12;;;;;;;17.45;6.65;;;;;;;;;;5070743;28;20032;-75
2022/10/28 06:31:39;;;;;;;13.65;6.22;;;;;;;;;;5069181;28;20020;-74
2022/10/28 06:34:05;;;;;;;14.07;6.88;;;;;;;;;;5068337;28;20024;-73
2022/10/28 06:36:32;;;;;;;13.13;5.85;;;;;;;;;;5069880;28;20133;-72
2022/10/28 06:38:58;;;;;;;13.07;6.32;;;;;;;;;;5071670;28;20480;-71
2022/10/28 06:41:24;;;;;;;15.75;7.15;;;;;;;;;;5071893;28;20024;-72
2022/10/28 06:43:51;;;;;;;16.23;7.07;;;;;;;;;;5072005;28;20106;-72
2022/10/28 06:46:17;;;;;;;16.35;6.72;;;;;;;;;;5071206;28;20029;-71
2022/10/28 06:48:43;;;;;;;19.48;6.80;;;;;;;;;;5071050;28;20029;-72
2022/10/28 06:51:09;;;;;;;37.38;8.82;;;;;;;;;;5071875;28;20029;-72
2022/10/28 06:53:36;;;;;;;81.18;11.18;;;;;;;;;;5071928;28;20032;-71
2022/10/28 06:56:03;;;;;;;14.90;5.93;;;;;;;;;;5072023;28;20024;-72
2022/10/28 06:58:29;;;;;;;21.15;6.82;;;;;;;;;;5071747;28;20067;-71
2022/10/28 07:00:55;;;;;;;24.83;7.72;;;;;;;;;;5070708;28;20029;-73
2022/10/28 07:03:22;;;;;;;22.08;7.38;;;;;;;;;;5071588;28;20051;-73
2022/10/28 07:05:50;;;;;;;33.97;9.30;;;;;;;;;;5071518;28;20032;-72
2022/10/28 07:08:16;;;;;;;19.73;7.70;;;;;;;;;;5071523;28;20023;-72
2022/10/28 07:10:42;;;;;;;36.70;10.13;;;;;;;;;;5071078;28;20027;-72
2022/10/28 07:13:09;;;;;;;16.10;7.32;;;;;;;;;;5071360;28;20520;-72
2022/10/28 07:15:35;;;;;;;20.90;7.53;;;;;;;;;;5070931;28;20028;-72
2022/10/28 07:18:01;;;;;;;32.05;8.52;;;;;;;;;;5071142;28;20485;-72
2022/10/28 07:20:30;;;;;;;24.85;8.07;;;;;;;;;;5071410;28;20062;-72
2022/10/28 07:22:57;;;;;;;18.40;8.38;;;;;;;;;;5071378;28;20013;-74
2022/10/28 07:25:24;;;;;;;20.80;8.57;;;;;;;;;;5070168;28;20033;-75
2022/10/28 07:27:50;;;;;;;25.48;8.48;;;;;;;;;;5070456;28;20029;-72
2022/10/28 07:30:17;;;;;;;25.88;9.00;;;;;;;;;;5073911;28;20082;-72
2022/10/28 07:32:43;;;;;;;37.92;9.98;;;;;;;;;;5074945;28;20023;-72
2022/10/28 07:35:09;;;;;;;19.13;8.13;;;;;;;;;;5075187;28;20023;-72
2022/10/28 07:37:37;;;;;;;27.00;9.65;;;;;;;;;;5074155;28;20024;-72
2022/10/28 07:40:04;;;;;;;51.38;13.70;;;;;;;;;;5075092;28;20069;-72
2022/10/28 07:42:30;;;;;;;50.80;12.07;;;;;;;;;;5074701;28;20089;-72
2022/10/28 07:44:56;;;;;;;24.60;9.35;;;;;;;;;;5074207;28;20078;-72
2022/10/28 07:47:23;;;;;;;40.80;10.65;;;;;;;;;;5074930;28;20020;-72
2022/10/28 07:49:49;;;;;;;33.25;10.02;;;;;;;;;;5074466;28;20413;-72
2022/10/28 07:52:15;;;;;;;25.38;9.32;;;;;;;;;;5074941;28;20027;-72
2022/10/28 07:54:41;;;;;;;33.30;9.57;;;;;;;;;;5075085;28;20378;-72
2022/10/28 07:57:08;;;;;;;18.65;8.68;;;;;;;;;;5074865;28;20020;-72
2022/10/28 07:59:34;;;;;;;23.98;7.93;;;;;;;;;;5074380;28;20028;-72
2022/10/28 08:02:00;;;;;;;25.40;9.80;;;;;;;;;;5074708;28;20025;-72
2022/10/28 08:04:29;;;;;;;36.67;11.07;;;;;;;;;;5074409;28;20517;-72
2022/10/28 08:06:55;;;;;;;31.20;10.20;;;;;;;;;;5074499;28;20077;-72
2022/10/28 08:09:21;;;;;;;21.40;8.40;;;;;;;;;;5074588;28;20029;-72
2022/10/28 08:11:48;;;;;;;15.63;7.60;;;;;;;;;;5073092;28;20427;-72
2022/10/28 08:14:14;;;;;;;22.65;7.43;;;;;;;;;;5074383;28;20101;-72
2022/10/28 08:16:41;;;;;;;22.38;7.95;;;;;;;;;;5074410;28;20028;-72
2022/10/28 08:19:07;;;;;;;21.92;7.15;;;;;;;;;;5074375;28;20031;-73
2022/10/28 08:21:33;;;;;;;20.55;7.50;;;;;;;;;;5074182;28;20029;-72
2022/10/28 08:23:59;;;;;;;20.45;7.22;;;;;;;;;;5074303;28;20021;-72
2022/10/28 08:26:26;;;;;;;18.23;7.18;;;;;;;;;;5073956;28;20489;-72
2022/10/28 08:28:52;;;;;;;28.17;7.50;;;;;;;;;;5074300;28;20025;-72
2022/10/28 08:31:18;;;;;;;31.67;8.82;;;;;;;;;;5073750;28;20035;-72
2022/10/28 08:33:45;;;;;;;21.25;6.72;;;;;;;;;;5073200;28;20489;-72
2022/10/28 08:36:13;;;;;;;18.90;6.97;;;;;;;;;;5073772;28;20027;-72
2022/10/28 08:38:39;;;;;;;34.25;8.60;;;;;;;;;;5072751;28;20024;-71
2022/10/28 08:41:06;;;;;;;16.55;6.47;;;;;;;;;;5072813;28;20031;-72
2022/10/28 08:43:32;;;;;;;20.65;7.15;;;;;;;;;;5074087;28;20024;-72
2022/10/28 08:46:08;;;;;;;26.73;6.60;;;;;;;;;;5072731;28;20024;-72
2022/10/28 08:48:35;;;;;;;26.98;6.20;;;;;;;;;;5073586;28;20030;-72
2022/10/28 08:51:12;;;;;;;26.30;6.32;;;;;;;;;;5073726;28;20028;-72
2022/10/28 08:53:47;;;;;;;15.50;5.07;;;;;;;;;;5073584;28;20035;-72
2022/10/28 08:56:32;;;;;;;16.25;5.43;;;;;;;;;;5073360;28;20035;-72
2022/10/28 08:59:00;;;;;;;21.70;6.07;;;;;;;;;;5073420;28;20412;-73
2022/10/28 09:01:36;;;;;;;24.08;7.05;;;;;;;;;;5072464;28;20481;-73
2022/10/28 09:04:05;;;;;;;30.05;7.65;;;;;;;;;;5073436;28;20025;-74
2022/10/28 09:06:31;;;;;;;24.33;6.43;;;;;;;;;;5073224;28;20397;-73
2022/10/28 09:08:57;;;;;;;36.35;7.40;;;;;;;;;;5070504;28;20051;-73
2022/10/28 09:11:42;;;;;;;24.08;6.18;;;;;;;;;;5072174;28;20013;-73
2022/10/28 09:14:15;;;;;;;26.13;7.05;;;;;;;;;;5067306;28;20044;-73
2022/10/28 09:16:46;;;;;;;19.70;5.82;;;;;;;;;;5073118;28;20031;-73
2022/10/28 09:19:15;;;;;;;21.33;6.28;;;;;;;;;;5073391;28;20029;-72
2022/10/28 09:21:51;;;;;;;17.25;5.85;;;;;;;;;;5073136;28;20041;-73
2022/10/28 09:24:25;;;;;;;19.05;5.90;;;;;;;;;;5073068;28;20038;-72
2022/10/28 09:27:11;;;;;;;27.98;6.90;;;;;;;;;;5073060;28;20020;-73
2022/10/28 09:30:00;;;;;;;31.90;6.68;;;;;;;;;;5072967;28;20042;-73
2022/10/28 09:32:47;;;;;;;28.80;6.53;;;;;;;;;;5067435;28;20034;-73
2022/10/28 09:35:15;;;;;;;30.60;6.68;;;;;;;;;;5013512;28;20060;-73
2022/10/28 09:37:47;;;;;;;23.52;5.72;;;;;;;;;;5028467;28;20055;-73
2022/10/28 09:40:14;;;;;;;24.23;6.35;;;;;;;;;;5028334;28;20386;-73
2022/10/28 09:42:43;;;;;;;18.75;6.22;;;;;;;;;;5019939;28;20030;-73
2022/10/28 09:45:25;;;;;;;32.13;5.70;;;;;;;;;;5029909;28;20025;-73
2022/10/28 09:48:09;;;;;;;15.32;5.97;;;;;;;;;;5030602;28;20430;-73
2022/10/28 09:50:36;;;;;;;21.90;6.68;;;;;;;;;;5029485;28;20033;-73
2022/10/28 09:53:02;;;;;;;19.17;6.45;;;;;;;;;;5030258;28;20043;-73
2022/10/28 09:55:29;;;;;;;20.33;6.40;;;;;;;;;;5029985;28;20037;-73
2022/10/28 09:57:55;;;;;;;24.65;6.60;;;;;;;;;;5028997;28;20056;-73
2022/10/28 10:00:21;;;;;;;18.83;6.45;;;;;;;;;;5030226;28;20033;-73
2022/10/28 10:02:50;;;;;;;19.17;7.03;;;;;;;;;;5029991;28;20036;-73
2022/10/28 10:05:17;;;;;;;16.85;5.68;;;;;;;;;;5030559;28;20029;-73
2022/10/28 10:08:10;;;;;;;17.35;6.00;;;;;;;;;;5029830;28;20434;-73
2022/10/28 10:11:05;;;;;;;19.20;6.10;;;;;;;;;;5027680;28;20041;-73
2022/10/28 10:13:36;;;;;;;20.60;6.03;;;;;;;;;;5059112;28;20057;-73
2022/10/28 10:16:05;;;;;;;20.80;6.90;;;;;;;;;;5071283;28;20393;-74
2022/10/28 10:18:32;;;;;;;21.45;6.22;;;;;;;;;;5071671;28;20020;-73
2022/10/28 10:20:58;;;;;;;25.55;6.53;;;;;;;;;;5072285;28;20040;-73
2022/10/28 10:23:32;;;;;;;22.35;6.57;;;;;;;;;;5071672;28;20025;-73
2022/10/28 10:26:06;;;;;;;17.13;5.88;;;;;;;;;;5071779;28;20032;-73
2022/10/28 10:28:34;;;;;;;16.92;6.43;;;;;;;;;;5071521;28;20031;-73
2022/10/28 10:31:05;;;;;;;19.50;5.60;;;;;;;;;;5070863;28;20016;-73
2022/10/28 10:33:34;;;;;;;21.25;5.70;;;;;;;;;;5069883;28;20069;-73
2022/10/28 10:36:03;;;;;;;17.40;5.65;;;;;;;;;;5071312;28;20078;-73
2022/10/28 10:38:31;;;;;;;20.75;5.38;;;;;;;;;;5071240;28;20025;-73
2022/10/28 10:40:57;;;;;;;15.95;5.63;;;;;;;;;;5072281;28;20017;-73
2022/10/28 10:43:29;;;;;;;24.45;5.97;;;;;;;;;;5071616;28;20027;-73
2022/10/28 10:45:59;;;;;;;17.13;5.25;;;;;;;;;;5071935;28;20488;-74
2022/10/28 10:48:26;;;;;;;17.52;5.95;;;;;;;;;;5071956;28;20032;-73
2022/10/28 10:50:53;;;;;;;20.83;5.60;;;;;;;;;;5071853;28;20032;-73
2022/10/28 10:53:27;;;;;;;17.38;6.25;;;;;;;;;;5071736;28;20021;-72
2022/10/28 10:56:00;;;;;;;18.42;5.88;;;;;;;;;;5071715;28;20383;-72
2022/10/28 10:58:28;;;;;;;21.33;5.75;;;;;;;;;;5071714;28;20500;-73
2022/10/28 11:00:55;;;;;;;17.83;6.07;;;;;;;;;;5072011;28;20025;-73
2022/10/28 11:03:29;;;;;;;19.20;5.60;;;;;;;;;;5071901;28;20466;-73
2022/10/28 11:05:57;;;;;;;13.73;5.50;;;;;;;;;;5075557;28;20056;-73
2022/10/28 11:08:26;;;;;;;25.05;5.80;;;;;;;;;;5074535;28;20512;-73
2022/10/28 11:11:04;;;;;;;20.38;5.05;;;;;;;;;;5075432;28;20032;-73
2022/10/28 11:13:31;;;;;;;19.48;5.40;;;;;;;;;;5074958;28;20048;-73
2022/10/28 11:16:02;;;;;;;17.98;5.53;;;;;;;;;;5075773;28;20046;-73
2022/10/28 11:18:30;;;;;;;13.73;6.10;;;;;;;;;;5074352;28;20220;-74
2022/10/28 11:20:56;;;;;;;16.67;5.53;;;;;;;;;;5075164;28;20776;-74
2022/10/28 11:23:23;;;;;;;19.20;5.50;;;;;;;;;;5075442;28;20020;-74
2022/10/28 11:25:52;;;;;;;19.40;6.13;;;;;;;;;;5074188;28;20028;-73
2022/10/28 11:28:41;;;;;;;27.70;6.68;;;;;;;;;;5075296;28;20027;-73
2022/10/28 11:31:11;;;;;;;22.15;5.47;;;;;;;;;;5069676;28;20045;-73
2022/10/28 11:33:48;;;;;;;13.57;5.00;;;;;;;;;;5075201;28;20032;-73
2022/10/28 11:36:14;;;;;;;22.42;5.30;;;;;;;;;;5074564;28;20013;-73
2022/10/28 11:38:41;;;;;;;28.02;6.35;;;;;;;;;;5075490;28;20024;-73
2022/10/28 11:41:13;;;;;;;22.73;6.20;;;;;;;;;;5074845;28;20035;-73
2022/10/28 11:43:46;;;;;;;18.25;5.85;;;;;;;;;;5072718;28;20027;-74
2022/10/28 11:46:21;;;;;;;17.45;5.68;;;;;;;;;;5073917;28;20040;-73
2022/10/28 11:48:50;;;;;;;17.65;5.53;;;;;;;;;;5073365;28;20050;-73
2022/10/28 11:51:26;;;;;;;20.40;5.60;;;;;;;;;;5074125;28;20035;-73
2022/10/28 11:54:11;;;;;;;18.20;5.68;;;;;;;;;;5073515;28;20013;-74
2022/10/28 11:56:37;;;;;;;16.95;4.97;;;;;;;;;;5074303;28;20490;-74
2022/10/28 11:59:22;;;;;;;16.52;4.93;;;;;;;;;;5073610;28;20021;-74
2022/10/28 12:01:55;;;;;;;21.05;5.53;;;;;;;;;;5069749;28;20023;-73
2022/10/28 12:04:21;;;;;;;13.48;4.40;;;;;;;;;;5072396;28;20036;-74
2022/10/28 12:06:54;;;;;;;15.63;4.25;;;;;;;;;;5072224;28;20028;-73
2022/10/28 12:09:20;;;;;;;15.55;4.88;;;;;;;;;;5073144;28;20043;-73
2022/10/28 12:11:55;;;;;;;18.80;4.43;;;;;;;;;;5074078;28;20050;-74
2022/10/28 12:14:26;;;;;;;26.10;5.10;;;;;;;;;;5073205;28;20052;-74
2022/10/28 12:17:00;;;;;;;19.60;4.68;;;;;;;;;;5073827;28;20030;-74
2022/10/28 12:19:31;;;;;;;21.40;4.97;;;;;;;;;;5073222;28;20035;-74
2022/10/28 12:22:03;;;;;;;16.10;5.05;;;;;;;;;;5073931;28;20019;-74
2022/10/28 12:24:31;;;;;;;22.88;5.05;;;;;;;;;;5073414;28;20472;-73
2022/10/28 12:26:59;;;;;;;16.90;4.60;;;;;;;;;;5073377;28;20027;-73
2022/10/28 12:29:27;;;;;;;19.80;5.25;;;;;;;;;;5073762;28;20028;-73
2022/10/28 12:32:00;;;;;;;18.42;4.25;;;;;;;;;;5073757;28;20036;-73
2022/10/28 12:34:39;;;;;;;16.70;5.20;;;;;;;;;;5074083;28;20013;-73
2022/10/28 12:37:08;;;;;;;16.05;4.40;;;;;;;;;;5073489;28;20350;-74
2022/10/28 12:39:38;;;;;;;23.50;4.70;;;;;;;;;;5074143;28;20102;-73
2022/10/28 12:42:27;;;;;;;16.42;4.93;;;;;;;;;;5072128;28;20048;-74
2022/10/28 12:44:56;;;;;;;22.80;5.23;;;;;;;;;;5070889;28;20044;-73
2022/10/28 12:47:26;;;;;;;22.63;4.60;;;;;;;;;;5072300;28;20401;-73
2022/10/28 12:50:01;;;;;;;18.50;4.72;;;;;;;;;;5073724;28;20039;-73
2022/10/28 12:52:40;;;;;;;17.88;4.68;;;;;;;;;;5073148;28;20047;-73
2022/10/28 12:55:12;;;;;;;18.35;5.03;;;;;;;;;;5072353;28;20037;-73
2022/10/28 12:57:40;;;;;;;20.67;5.15;;;;;;;;;;5073734;28;20032;-72
2022/10/28 13:00:14;;;;;;;17.65;4.45;;;;;;;;;;5071896;28;20031;-73
2022/10/28 13:02:46;;;;;;;22.50;5.15;;;;;;;;;;5072755;28;20511;-73
2022/10/28 13:05:18;;;;;;;13.98;4.78;;;;;;;;;;5073311;28;20438;-73
2022/10/28 13:08:07;;;;;;;21.85;6.22;;;;;;;;;;5073581;28;20028;-73
2022/10/28 13:10:39;;;;;;;14.18;5.05;;;;;;;;;;5073136;28;20047;-72
2022/10/28 13:13:24;;;;;;;18.77;5.38;;;;;;;;;;5073378;28;20036;-74
2022/10/28 13:16:10;;;;;;;13.55;5.07;;;;;;;;;;5073189;28;20036;-73
2022/10/28 13:18:39;;;;;;;17.42;4.90;;;;;;;;;;5050401;28;20055;-73
2022/10/28 13:21:21;;;;;;;15.80;4.78;;;;;;;;;;5050896;28;20107;-74
2022/10/28 13:23:52;;;;;;;14.88;5.07;;;;;;;;;;5050938;28;20567;-73
2022/10/28 13:26:26;;;;;;;20.63;5.13;;;;;;;;;;5049510;28;20029;-73
2022/10/28 13:28:54;;;;;;;19.48;5.45;;;;;;;;;;5050611;28;20017;-73
2022/10/28 13:31:20;;;;;;;19.88;5.65;;;;;;;;;;5050242;28;20451;-73
2022/10/28 13:33:50;;;;;;;21.83;5.63;;;;;;;;;;5049277;28;20025;-73
2022/10/28 13:36:26;;;;;;;21.83;5.45;;;;;;;;;;5050683;28;20082;-73
2022/10/28 13:38:55;;;;;;;19.30;5.72;;;;;;;;;;5050474;28;20558;-73
2022/10/28 13:41:37;;;;;;;17.73;4.80;;;;;;;;;;5050633;28;20504;-73
2022/10/28 13:44:10;;;;;;;17.33;5.20;;;;;;;;;;5050430;28;20013;-74
2022/10/28 13:46:54;;;;;;;19.25;5.03;;;;;;;;;;5050414;28;20029;-73
2022/10/28 13:49:27;;;;;;;18.25;5.10;;;;;;;;;;5050719;28;20502;-73
2022/10/28 13:52:13;;;;;;;14.27;5.35;;;;;;;;;;5047566;28;20029;-72
2022/10/28 13:54:43;;;;;;;16.48;5.32;;;;;;;;;;5035659;28;20033;-72
2022/10/28 13:57:13;;;;;;;20.83;5.57;;;;;;;;;;5072764;28;20031;-73
2022/10/28 13:59:49;;;;;;;14.50;4.97;;;;;;;;;;5072293;28;20028;-71
2022/10/28 14:02:18;;;;;;;14.45;5.22;;;;;;;;;;5072278;28;20040;-74
2022/10/28 14:04:53;;;;;;;26.80;5.63;;;;;;;;;;5072344;28;20031;-72
2022/10/28 14:07:21;;;;;;;14.00;5.72;;;;;;;;;;5071770;28;20415;-73
2022/10/28 14:09:52;;;;;;;15.27;5.68;;;;;;;;;;5072120;28;20036;-74
2022/10/28 14:12:22;;;;;;;24.45;5.63;;;;;;;;;;5071627;28;20024;-73
2022/10/28 14:14:50;;;;;;;19.95;5.40;;;;;;;;;;5070214;28;20045;-73
2022/10/28 14:17:19;;;;;;;18.30;5.88;;;;;;;;;;5070725;28;20028;-73
2022/10/28 14:19:50;;;;;;;17.17;5.32;;;;;;;;;;5071607;28;20024;-73
2022/10/28 14:22:27;;;;;;;17.50;5.22;;;;;;;;;;5070432;28;20024;-72
2022/10/28 14:24:53;;;;;;;19.23;5.57;;;;;;;;;;5071280;28;20020;-72
2022/10/28 14:27:27;;;;;;;19.48;5.60;;;;;;;;;;5072241;28;20020;-72
2022/10/28 14:29:56;;;;;;;21.65;5.90;;;;;;;;;;5071546;28;20454;-72
2022/10/28 14:32:31;;;;;;;23.00;6.25;;;;;;;;;;5071892;28;20026;-72
2022/10/28 14:35:13;;;;;;;21.55;6.70;;;;;;;;;;5071837;28;20040;-72
2022/10/28 14:37:58;;;;;;;20.65;6.75;;;;;;;;;;5071892;28;20035;-72
2022/10/28 14:40:42;;;;;;;23.75;7.03;;;;;;;;;;5071666;28;20016;-72
2022/10/28 14:43:18;;;;;;;21.70;6.15;;;;;;;;;;5072072;28;20499;-73